Time;durP1;ratioP1;P1;durP2;ratioP2;P2;SDS_P1;SDS_P2;PMS_P1;PMS_P2;Temp;Humidity;BMP_temperature;BMP_pressure;BME280_temperature;BME280_humidity;BME280_pressure;Samples;Min_cycle;Max_cycle;Signal;HPM_P1;HPM_P2
2022/12/16 00:00:25;;;;;;;84.97;63.28;;;-4.50;99.90;;;;;;2066786;28;20116;-70
2022/12/16 00:01:26;;;;;;;88.80;65.32;;;-4.50;99.90;;;;;;2076750;28;20021;-70
2022/12/16 00:02:27;;;;;;;85.10;64.90;;;-4.50;99.90;;;;;;2082082;28;20043;-70
2022/12/16 00:03:27;;;;;;;89.55;63.42;;;-4.60;99.90;;;;;;2082346;28;20095;-70
2022/12/16 00:04:28;;;;;;;88.15;65.40;;;-4.50;99.90;;;;;;2073496;28;20026;-70
2022/12/16 00:05:29;;;;;;;87.60;61.63;;;-4.50;99.90;;;;;;2073975;28;20041;-70
2022/12/16 00:06:31;;;;;;;84.22;62.53;;;-4.50;99.90;;;;;;2076333;28;20028;-70
2022/12/16 00:07:32;;;;;;;88.20;64.03;;;-4.60;99.90;;;;;;2076238;28;20072;-70
2022/12/16 00:08:36;;;;;;;86.18;64.15;;;-4.60;99.90;;;;;;2075518;28;20041;-70
2022/12/16 00:09:36;;;;;;;84.75;64.22;;;-4.50;99.90;;;;;;2074864;28;20034;-70
2022/12/16 00:10:51;;;;;;;86.95;63.47;;;-4.50;99.90;;;;;;2076554;28;20061;-70
2022/12/16 00:11:52;;;;;;;85.72;62.92;;;-4.60;99.90;;;;;;2075878;28;20568;-70
2022/12/16 00:12:52;;;;;;;89.80;66.30;;;-4.60;99.90;;;;;;2076092;28;20437;-70
2022/12/16 00:13:53;;;;;;;88.85;64.22;;;-4.60;99.90;;;;;;2076534;28;20025;-70
2022/12/16 00:14:54;;;;;;;92.55;67.55;;;-4.60;99.90;;;;;;2074186;28;20113;-70
2022/12/16 00:15:54;;;;;;;86.22;62.97;;;-4.60;99.90;;;;;;2077333;28;20022;-70
2022/12/16 00:16:55;;;;;;;86.18;65.53;;;-4.60;99.90;;;;;;2075011;28;20033;-70
2022/12/16 00:17:55;;;;;;;87.07;62.20;;;-4.60;99.90;;;;;;2075222;28;20108;-70
2022/12/16 00:18:56;;;;;;;79.90;58.17;;;-4.60;99.90;;;;;;2076254;28;20033;-70
2022/12/16 00:19:56;;;;;;;85.70;61.53;;;-4.70;99.90;;;;;;2077046;28;20032;-70
2022/12/16 00:20:57;;;;;;;84.05;60.63;;;-4.60;99.90;;;;;;2075832;28;20021;-70
2022/12/16 00:21:58;;;;;;;91.25;65.07;;;-4.60;99.90;;;;;;2075175;28;20037;-70
2022/12/16 00:22:58;;;;;;;86.53;64.80;;;-4.60;99.90;;;;;;2075907;28;20100;-70
2022/12/16 00:23:59;;;;;;;88.53;64.80;;;-4.60;99.90;;;;;;2075509;28;20030;-70
2022/12/16 00:24:59;;;;;;;89.97;64.20;;;-4.60;99.90;;;;;;2073820;28;20688;-70
2022/12/16 00:26:00;;;;;;;88.18;61.80;;;-4.60;99.90;;;;;;2076542;28;20029;-70
2022/12/16 00:27:01;;;;;;;88.75;63.20;;;-4.60;99.90;;;;;;2077219;28;20040;-70
2022/12/16 00:28:02;;;;;;;86.25;62.03;;;-4.60;99.90;;;;;;2074620;28;20033;-70
2022/12/16 00:29:04;;;;;;;77.75;58.40;;;-4.70;99.90;;;;;;2072894;28;20076;-70
2022/12/16 00:30:05;;;;;;;83.05;60.00;;;-4.70;99.90;;;;;;2073550;28;20036;-70
2022/12/16 00:31:06;;;;;;;81.13;57.83;;;-4.60;99.90;;;;;;2076170;28;20061;-70
2022/12/16 00:32:07;;;;;;;84.45;59.88;;;-4.70;99.90;;;;;;2075751;28;20544;-70
2022/12/16 00:33:08;;;;;;;82.97;59.95;;;-4.60;99.90;;;;;;2074862;28;20075;-70
2022/12/16 00:34:08;;;;;;;82.13;57.88;;;-4.60;99.90;;;;;;2075485;28;20052;-70
2022/12/16 00:35:09;;;;;;;82.25;60.88;;;-4.60;99.90;;;;;;2074984;28;20021;-70
2022/12/16 00:36:09;;;;;;;84.10;58.88;;;-4.70;99.90;;;;;;2076522;28;20036;-70
2022/12/16 00:37:12;;;;;;;80.70;57.03;;;-4.70;99.90;;;;;;2075945;28;20079;-70
2022/12/16 00:38:13;;;;;;;85.60;62.45;;;-4.70;99.90;;;;;;2076996;28;20029;-70
2022/12/16 00:39:14;;;;;;;84.10;62.42;;;-4.70;99.90;;;;;;2077739;28;20025;-70
2022/12/16 00:40:14;;;;;;;86.80;63.58;;;-4.70;99.90;;;;;;2076997;28;20056;-70
2022/12/16 00:41:15;;;;;;;84.75;59.80;;;-4.70;99.90;;;;;;2078548;28;20123;-70
2022/12/16 00:42:15;;;;;;;77.13;56.28;;;-4.70;99.90;;;;;;2076872;28;20108;-70
2022/12/16 00:43:16;;;;;;;84.20;63.00;;;-4.70;99.90;;;;;;2072778;28;20171;-70
2022/12/16 00:44:17;;;;;;;86.10;63.30;;;-4.70;99.90;;;;;;2072898;28;20029;-70
2022/12/16 00:45:18;;;;;;;85.95;64.28;;;-4.70;99.90;;;;;;2073460;28;20029;-70
2022/12/16 00:46:18;;;;;;;82.20;60.58;;;-4.70;99.90;;;;;;2076696;28;20037;-70
2022/12/16 00:47:19;;;;;;;87.00;62.55;;;-4.70;99.90;;;;;;2077301;28;20048;-70
2022/12/16 00:48:22;;;;;;;88.05;63.95;;;-4.70;99.90;;;;;;2083494;28;20051;-70
2022/12/16 00:49:23;;;;;;;88.90;64.00;;;-4.70;99.90;;;;;;2083291;28;20048;-70
2022/12/16 00:50:24;;;;;;;85.43;62.65;;;-4.70;99.90;;;;;;2076533;28;20034;-70
2022/12/16 00:51:24;;;;;;;90.88;63.85;;;-4.70;99.90;;;;;;2074659;28;20033;-70
2022/12/16 00:52:25;;;;;;;85.10;62.75;;;-4.70;99.90;;;;;;2077009;28;20021;-70
2022/12/16 00:53:25;;;;;;;88.20;61.53;;;-4.70;99.90;;;;;;2077226;28;20021;-70
2022/12/16 00:54:26;;;;;;;86.45;62.58;;;-4.80;99.90;;;;;;2075481;28;20059;-70
2022/12/16 00:55:26;;;;;;;86.18;61.65;;;-4.80;99.90;;;;;;2074839;28;20025;-70
2022/12/16 00:56:27;;;;;;;84.30;60.08;;;-4.80;99.90;;;;;;2076168;28;20053;-70
2022/12/16 00:57:27;;;;;;;81.60;59.33;;;-4.80;99.90;;;;;;2083105;28;20034;-70
2022/12/16 00:58:28;;;;;;;86.75;62.40;;;-4.80;99.90;;;;;;2082839;28;20083;-70
2022/12/16 00:59:28;;;;;;;85.75;61.40;;;-4.80;99.90;;;;;;2075602;28;20108;-70
2022/12/16 01:00:29;;;;;;;84.30;61.28;;;-4.80;99.90;;;;;;2075148;28;20047;-70
2022/12/16 01:01:29;;;;;;;83.90;58.55;;;-4.80;99.90;;;;;;2075120;28;20041;-70
2022/12/16 01:02:31;;;;;;;78.65;56.92;;;-4.80;99.90;;;;;;2074211;28;20980;-70
2022/12/16 01:03:32;;;;;;;79.53;58.20;;;-4.80;99.90;;;;;;2071385;28;20029;-70
2022/12/16 01:04:32;;;;;;;82.05;56.15;;;-4.80;99.90;;;;;;2076446;28;20040;-70
2022/12/16 01:05:33;;;;;;;83.30;59.38;;;-4.80;99.90;;;;;;2075705;28;20112;-70
2022/12/16 01:06:33;;;;;;;80.20;56.90;;;-4.80;99.90;;;;;;2076205;28;20042;-70
2022/12/16 01:07:34;;;;;;;78.75;56.88;;;-4.80;99.90;;;;;;2076435;28;20951;-70
2022/12/16 01:08:35;;;;;;;79.18;55.53;;;-4.80;99.90;;;;;;2073608;28;20025;-70
2022/12/16 01:09:36;;;;;;;76.18;55.47;;;-4.80;99.90;;;;;;2076195;28;20707;-70
2022/12/16 01:10:36;;;;;;;74.03;53.95;;;-4.80;99.90;;;;;;2073821;28;20068;-70
2022/12/16 01:11:37;;;;;;;80.03;57.15;;;-4.80;99.90;;;;;;2077027;28;20032;-70
2022/12/16 01:12:38;;;;;;;70.50;51.40;;;-4.80;99.90;;;;;;2075897;28;20116;-70
2022/12/16 01:13:38;;;;;;;72.05;51.97;;;-4.80;99.90;;;;;;2075582;28;20032;-70
2022/12/16 01:14:39;;;;;;;71.50;50.63;;;-4.80;99.90;;;;;;2075000;28;20028;-70
2022/12/16 01:15:40;;;;;;;77.60;53.92;;;-4.90;99.90;;;;;;2077107;28;20021;-70
2022/12/16 01:16:40;;;;;;;77.45;52.70;;;-4.80;99.90;;;;;;2075612;28;20026;-70
2022/12/16 01:17:41;;;;;;;75.10;52.53;;;-4.90;99.90;;;;;;2076072;28;20021;-70
2022/12/16 01:18:42;;;;;;;74.88;53.40;;;-4.80;99.90;;;;;;2075520;28;20104;-70
2022/12/16 01:19:42;;;;;;;71.85;51.30;;;-4.80;99.90;;;;;;2075981;28;20104;-70
2022/12/16 01:20:43;;;;;;;70.32;50.05;;;-4.90;99.90;;;;;;2075521;28;20108;-70
2022/12/16 01:21:43;;;;;;;63.92;48.75;;;-4.80;99.90;;;;;;2076284;28;20505;-70
2022/12/16 01:22:44;;;;;;;72.90;52.30;;;-4.80;99.90;;;;;;2075318;28;20095;-70
2022/12/16 01:23:46;;;;;;;65.15;48.38;;;-4.80;99.90;;;;;;2077296;28;20071;-70
2022/12/16 01:24:47;;;;;;;72.15;50.35;;;-4.80;99.90;;;;;;2076881;28;20021;-70
2022/12/16 01:25:51;;;;;;;70.88;51.63;;;-4.80;99.90;;;;;;2076377;28;20045;-70
2022/12/16 01:26:52;;;;;;;70.93;51.10;;;-4.80;99.90;;;;;;2077553;28;20025;-70
2022/12/16 01:27:52;;;;;;;70.55;51.72;;;-4.90;99.90;;;;;;2073332;28;20025;-70
2022/12/16 01:28:53;;;;;;;68.97;49.85;;;-4.80;99.90;;;;;;2075662;28;20051;-70
2022/12/16 01:29:54;;;;;;;68.38;48.35;;;-4.80;99.90;;;;;;2074913;28;20067;-70
2022/12/16 01:31:00;;;;;;;67.80;49.78;;;-4.90;99.90;;;;;;2073740;28;20055;-70
2022/12/16 01:32:01;;;;;;;69.20;49.40;;;-4.80;99.90;;;;;;2076412;28;20067;-70
2022/12/16 01:33:01;;;;;;;70.70;49.00;;;-4.80;99.90;;;;;;2074604;28;20088;-70
2022/12/16 01:34:02;;;;;;;68.10;48.90;;;-4.90;99.90;;;;;;2076982;28;20737;-70
2022/12/16 01:35:03;;;;;;;68.07;50.40;;;-4.90;99.90;;;;;;2076849;28;20029;-70
2022/12/16 01:36:05;;;;;;;69.60;50.95;;;-4.90;99.90;;;;;;2073904;28;20033;-70
2022/12/16 01:37:09;;;;;;;64.10;48.38;;;-4.90;99.90;;;;;;2074460;28;20048;-70
2022/12/16 01:38:09;;;;;;;70.80;51.55;;;-4.90;99.90;;;;;;2077148;28;20034;-70
2022/12/16 01:39:11;;;;;;;70.30;50.85;;;-4.90;99.90;;;;;;2075957;28;20520;-70
2022/12/16 01:40:17;;;;;;;69.70;51.38;;;-4.90;99.90;;;;;;2077472;28;20025;-70
2022/12/16 01:41:18;;;;;;;67.75;49.55;;;-4.90;99.90;;;;;;2074984;28;20963;-70
2022/12/16 01:42:21;;;;;;;65.97;48.30;;;-4.90;99.90;;;;;;2073253;28;20393;-70
2022/12/16 01:43:26;;;;;;;70.75;48.42;;;-4.90;99.90;;;;;;2077580;28;20029;-70
2022/12/16 01:44:27;;;;;;;75.00;50.88;;;-4.90;99.90;;;;;;2076898;28;20032;-69
2022/12/16 01:45:36;;;;;;;72.40;51.15;;;-4.90;99.90;;;;;;2074760;28;20681;-70
2022/12/16 01:46:37;;;;;;;69.15;47.97;;;-4.90;99.90;;;;;;2076000;28;20029;-70
2022/12/16 01:47:38;;;;;;;75.05;52.15;;;-4.90;99.90;;;;;;2075150;28;20512;-70
2022/12/16 01:49:02;;;;;;;68.78;47.55;;;-4.90;99.90;;;;;;2075173;28;20664;-70
2022/12/16 01:50:09;;;;;;;69.60;48.65;;;-4.90;99.90;;;;;;2075373;28;20032;-70
2022/12/16 01:51:42;;;;;;;72.07;49.45;;;-4.90;99.90;;;;;;2074331;28;20025;-70
2022/12/16 01:52:55;;;;;;;66.60;46.58;;;-4.90;99.90;;;;;;2074610;28;20810;-70
2022/12/16 01:54:00;;;;;;;64.40;47.92;;;-4.90;99.90;;;;;;2075801;28;20022;-70
2022/12/16 01:55:11;;;;;;;65.50;45.53;;;-4.90;99.90;;;;;;2076340;28;20021;-70
2022/12/16 01:56:16;;;;;;;67.03;46.20;;;-4.90;99.90;;;;;;2075287;28;20057;-70
2022/12/16 01:57:23;;;;;;;67.07;46.70;;;-4.90;99.90;;;;;;2082386;28;20065;-70
2022/12/16 01:58:29;;;;;;;64.57;46.22;;;-4.90;99.90;;;;;;2081865;28;20056;-70
2022/12/16 01:59:31;;;;;;;64.80;46.92;;;-4.90;99.90;;;;;;2077410;28;20668;-70
2022/12/16 02:00:33;;;;;;;64.28;46.97;;;-4.90;99.90;;;;;;2085159;28;20029;-70
2022/12/16 02:01:34;;;;;;;61.95;45.28;;;-4.90;99.90;;;;;;2083368;28;20033;-70
2022/12/16 02:02:35;;;;;;;58.90;45.20;;;-4.90;99.90;;;;;;2076172;28;20018;-70
2022/12/16 02:03:36;;;;;;;60.38;44.92;;;-4.90;99.90;;;;;;2077581;28;20022;-70
2022/12/16 02:05:19;;;;;;;64.00;46.45;;;-4.90;99.90;;;;;;2074180;28;20029;-70
2022/12/16 02:05:59;;;;;;;60.33;43.05;;;-4.90;99.90;;;;;;2077271;28;20033;-70
2022/12/16 02:07:00;;;;;;;61.90;46.63;;;-4.90;99.90;;;;;;2077456;28;20456;-70
2022/12/16 02:08:05;;;;;;;63.92;46.85;;;-5.00;99.90;;;;;;2084148;28;20118;-70
2022/12/16 02:09:10;;;;;;;66.78;47.67;;;-5.00;99.90;;;;;;2084709;28;20345;-70
2022/12/16 02:10:10;;;;;;;61.92;45.05;;;-4.90;99.90;;;;;;2078216;28;20023;-70
2022/12/16 02:11:27;;;;;;;61.70;44.80;;;-4.90;99.90;;;;;;2076033;28;20025;-70
2022/12/16 02:12:51;;;;;;;60.53;43.78;;;-4.90;99.90;;;;;;2077832;28;20349;-70
2022/12/16 02:14:27;;;;;;;65.13;44.90;;;-4.90;99.90;;;;;;2076983;28;20018;-70
2022/12/16 02:15:34;;;;;;;60.00;41.67;;;-5.00;99.90;;;;;;2075677;28;20033;-70
2022/12/16 02:16:57;;;;;;;61.03;41.53;;;-5.00;99.90;;;;;;2078059;28;20021;-70
2022/12/16 02:18:19;;;;;;;57.38;41.50;;;-5.00;99.90;;;;;;2076769;28;20036;-70
2022/12/16 02:19:26;;;;;;;54.60;38.35;;;-5.10;99.90;;;;;;2075645;28;20030;-70
2022/12/16 02:20:58;;;;;;;54.03;39.47;;;-5.10;99.90;;;;;;2084935;28;20025;-70
2022/12/16 02:22:17;;;;;;;56.35;38.20;;;-5.10;99.90;;;;;;2079995;28;20491;-70
2022/12/16 02:23:24;;;;;;;53.17;37.92;;;-5.10;99.90;;;;;;2076456;28;20030;-70
2022/12/16 02:24:55;;;;;;;53.83;39.90;;;-5.10;99.90;;;;;;2076423;28;20041;-70
2022/12/16 02:26:34;;;;;;;53.55;39.30;;;-5.10;99.90;;;;;;2075486;28;20068;-70
2022/12/16 02:27:52;;;;;;;56.00;39.30;;;-5.10;99.90;;;;;;2074813;28;20060;-70
2022/12/16 02:29:11;;;;;;;59.65;41.22;;;-5.10;99.90;;;;;;2075547;28;20088;-70
2022/12/16 02:30:20;;;;;;;53.92;39.10;;;-5.10;99.90;;;;;;2076108;28;20029;-70
2022/12/16 02:31:56;;;;;;;55.67;40.33;;;-5.10;99.90;;;;;;2077171;28;20025;-70
2022/12/16 02:33:21;;;;;;;56.65;41.28;;;-5.10;99.90;;;;;;2065286;28;20272;-70
2022/12/16 02:34:52;;;;;;;53.03;39.28;;;-5.10;99.90;;;;;;2072073;28;20030;-70
2022/12/16 02:36:06;;;;;;;56.10;38.65;;;-5.10;99.90;;;;;;2076605;28;20021;-70
2022/12/16 02:37:28;;;;;;;55.42;40.70;;;-5.10;99.90;;;;;;2075290;28;20083;-70
2022/12/16 02:38:48;;;;;;;55.28;39.45;;;-5.20;99.90;;;;;;2077764;28;20053;-70
2022/12/16 02:39:57;;;;;;;54.38;40.25;;;-5.10;99.90;;;;;;2076932;28;20529;-70
2022/12/16 02:41:03;;;;;;;55.10;40.90;;;-5.10;99.90;;;;;;2079044;28;20029;-70
2022/12/16 02:42:20;;;;;;;53.80;39.15;;;-5.10;99.90;;;;;;2072390;28;20084;-70
2022/12/16 02:43:39;;;;;;;54.63;39.67;;;-5.10;99.90;;;;;;2076507;28;21110;-70
2022/12/16 02:45:06;;;;;;;53.60;37.97;;;-5.10;99.90;;;;;;2076243;28;20025;-70
2022/12/16 02:46:08;;;;;;;56.95;39.70;;;-5.10;99.90;;;;;;2078295;28;20087;-70
2022/12/16 02:47:09;;;;;;;54.67;39.33;;;-5.20;99.90;;;;;;2074691;28;20129;-70
2022/12/16 02:48:10;;;;;;;55.42;39.92;;;-5.10;99.90;;;;;;2077083;28;20032;-69
2022/12/16 02:49:11;;;;;;;49.70;37.40;;;-5.10;99.90;;;;;;2076214;28;20029;-70
2022/12/16 02:50:29;;;;;;;50.72;37.72;;;-5.20;99.90;;;;;;2075031;28;20845;-70
2022/12/16 02:51:30;;;;;;;52.90;38.95;;;-5.10;99.90;;;;;;2076773;28;20029;-70
2022/12/16 02:52:33;;;;;;;52.13;39.25;;;-5.10;99.90;;;;;;2076666;28;20018;-70
2022/12/16 02:53:36;;;;;;;53.38;37.22;;;-5.10;99.90;;;;;;2075969;28;20063;-70
2022/12/16 02:54:38;;;;;;;50.85;36.63;;;-5.10;99.90;;;;;;2075185;28;20036;-70
2022/12/16 02:56:03;;;;;;;48.97;37.05;;;-5.10;99.90;;;;;;2076481;28;20025;-70
2022/12/16 02:57:20;;;;;;;51.92;37.25;;;-5.20;99.90;;;;;;2075929;28;20155;-70
2022/12/16 02:58:45;;;;;;;50.15;37.17;;;-5.20;99.90;;;;;;2075589;28;20030;-70
2022/12/16 02:59:51;;;;;;;51.83;35.80;;;-5.20;99.90;;;;;;2075853;28;20112;-70
2022/12/16 03:01:10;;;;;;;48.38;37.88;;;-5.20;99.90;;;;;;2076432;28;20020;-70
2022/12/16 03:02:32;;;;;;;53.53;37.28;;;-5.20;99.90;;;;;;2076456;28;20025;-70
2022/12/16 03:03:44;;;;;;;51.65;38.13;;;-5.20;99.90;;;;;;2075142;28;20057;-70
2022/12/16 03:05:09;;;;;;;49.83;36.50;;;-5.20;99.90;;;;;;2074826;28;20601;-70
2022/12/16 03:06:13;;;;;;;50.13;36.33;;;-5.20;99.90;;;;;;2077455;28;20086;-70
2022/12/16 03:07:18;;;;;;;51.78;37.75;;;-5.20;99.90;;;;;;2076301;28;20025;-70
2022/12/16 03:08:29;;;;;;;47.92;35.55;;;-5.20;99.90;;;;;;2076865;28;20054;-70
2022/12/16 03:09:33;;;;;;;51.50;38.08;;;-5.20;99.90;;;;;;2076207;28;20033;-70
2022/12/16 03:10:40;;;;;;;52.05;38.28;;;-5.20;99.90;;;;;;2075150;28;20084;-70
2022/12/16 03:11:43;;;;;;;47.80;35.17;;;-5.20;99.90;;;;;;2075350;28;20029;-70
2022/12/16 03:12:45;;;;;;;46.80;35.70;;;-5.20;99.90;;;;;;2077679;28;20028;-70
2022/12/16 03:13:50;;;;;;;51.60;36.35;;;-5.20;99.90;;;;;;2074943;28;20029;-70
2022/12/16 03:14:53;;;;;;;51.63;37.35;;;-5.20;99.90;;;;;;2073790;28;20021;-70
2022/12/16 03:15:57;;;;;;;48.63;36.30;;;-5.20;99.90;;;;;;2076310;28;20025;-70
2022/12/16 03:16:58;;;;;;;52.95;37.22;;;-5.20;99.90;;;;;;2076210;28;20100;-70
2022/12/16 03:18:02;;;;;;;47.65;36.00;;;-5.20;99.90;;;;;;2077253;28;20064;-70
2022/12/16 03:19:07;;;;;;;49.30;36.95;;;-5.20;99.90;;;;;;2076260;28;20025;-70
2022/12/16 03:20:20;;;;;;;46.88;34.78;;;-5.20;99.90;;;;;;2077061;28;20041;-70
2022/12/16 03:21:26;;;;;;;46.58;34.90;;;-5.20;99.90;;;;;;2076624;28;20034;-70
2022/12/16 03:22:31;;;;;;;48.13;34.88;;;-5.20;99.90;;;;;;2076079;28;20040;-69
2022/12/16 03:23:59;;;;;;;52.17;35.45;;;-5.20;99.90;;;;;;2076782;28;20017;-69
2022/12/16 03:25:00;;;;;;;46.13;34.22;;;-5.20;99.90;;;;;;2077119;28;20021;-69
2022/12/16 03:26:09;;;;;;;45.28;34.30;;;-5.20;99.90;;;;;;2076428;28;20053;-70
2022/12/16 03:27:17;;;;;;;48.17;33.95;;;-5.20;99.90;;;;;;2074410;28;20529;-69
2022/12/16 03:28:50;;;;;;;47.03;33.88;;;-5.30;99.90;;;;;;2076532;28;20030;-69
2022/12/16 03:29:57;;;;;;;43.53;33.83;;;-5.30;99.90;;;;;;2061438;28;20065;-69
2022/12/16 03:31:16;;;;;;;46.85;34.25;;;-5.30;99.90;;;;;;2076289;28;20029;-69
2022/12/16 03:32:36;;;;;;;48.38;33.85;;;-5.30;99.90;;;;;;2083272;28;20025;-69
2022/12/16 03:33:45;;;;;;;45.03;33.10;;;-5.30;99.90;;;;;;2082833;28;20036;-69
2022/12/16 03:34:58;;;;;;;43.67;32.37;;;-5.30;99.90;;;;;;2074482;28;20061;-69
2022/12/16 03:36:08;;;;;;;44.85;33.60;;;-5.30;99.90;;;;;;2075461;28;20943;-69
2022/12/16 03:37:11;;;;;;;48.25;33.78;;;-5.30;99.90;;;;;;2074117;28;20657;-69
2022/12/16 03:38:14;;;;;;;44.00;31.48;;;-5.30;99.90;;;;;;2075178;28;20025;-69
2022/12/16 03:39:15;;;;;;;47.42;33.47;;;-5.30;99.90;;;;;;2076367;28;20040;-69
2022/12/16 03:40:16;;;;;;;44.72;33.00;;;-5.30;99.90;;;;;;2077681;28;20033;-69
2022/12/16 03:41:20;;;;;;;42.10;30.33;;;-5.30;99.90;;;;;;2076699;28;20724;-69
2022/12/16 03:42:22;;;;;;;48.22;34.10;;;-5.30;99.90;;;;;;2072853;28;20510;-69
2022/12/16 03:43:23;;;;;;;43.10;32.45;;;-5.30;99.90;;;;;;2075296;28;20025;-69
2022/12/16 03:44:24;;;;;;;43.42;33.42;;;-5.30;99.90;;;;;;2075667;28;20039;-69
2022/12/16 03:45:29;;;;;;;47.75;32.58;;;-5.30;99.90;;;;;;2075674;28;20482;-69
2022/12/16 03:46:30;;;;;;;46.17;32.53;;;-5.30;99.90;;;;;;2076562;28;20025;-69
2022/12/16 03:47:31;;;;;;;39.92;29.05;;;-5.30;99.90;;;;;;2074903;28;20033;-69
2022/12/16 03:48:32;;;;;;;43.15;32.55;;;-5.30;99.90;;;;;;2077772;28;20030;-69
2022/12/16 03:49:33;;;;;;;45.22;34.40;;;-5.20;99.90;;;;;;2074675;28;20025;-69
2022/12/16 03:50:35;;;;;;;44.33;33.42;;;-5.20;99.90;;;;;;2073862;28;20032;-69
2022/12/16 03:51:35;;;;;;;47.85;33.60;;;-5.20;99.90;;;;;;2075962;28;20436;-70
2022/12/16 03:52:36;;;;;;;48.42;33.95;;;-5.20;99.90;;;;;;2076472;28;20113;-69
2022/12/16 03:53:36;;;;;;;47.80;34.30;;;-5.20;99.90;;;;;;2077025;28;20029;-69
2022/12/16 03:54:37;;;;;;;41.50;31.58;;;-5.20;99.90;;;;;;2076563;28;20052;-69
2022/12/16 03:55:37;;;;;;;44.55;33.00;;;-5.20;99.90;;;;;;2076317;28;20037;-69
2022/12/16 03:56:38;;;;;;;44.67;33.65;;;-5.20;99.90;;;;;;2075149;28;20116;-69
2022/12/16 03:57:38;;;;;;;45.90;34.58;;;-5.20;99.90;;;;;;2075427;28;20033;-69
2022/12/16 03:58:39;;;;;;;45.30;33.47;;;-5.20;99.90;;;;;;2076513;28;20148;-69
2022/12/16 03:59:40;;;;;;;43.70;31.90;;;-5.20;99.90;;;;;;2073235;28;20024;-69
2022/12/16 04:00:40;;;;;;;47.05;33.65;;;-5.20;99.90;;;;;;2075035;28;20022;-69
2022/12/16 04:01:42;;;;;;;47.65;33.47;;;-5.20;99.90;;;;;;2076544;28;20462;-69
2022/12/16 04:02:43;;;;;;;41.30;31.83;;;-5.30;99.90;;;;;;2077712;28;20432;-69
2022/12/16 04:03:43;;;;;;;44.97;32.95;;;-5.30;99.90;;;;;;2075937;28;20023;-69
2022/12/16 04:04:44;;;;;;;44.22;33.60;;;-5.20;99.90;;;;;;2084655;28;20021;-69
2022/12/16 04:05:44;;;;;;;41.80;31.67;;;-5.30;99.90;;;;;;2074313;28;20048;-69
2022/12/16 04:07:18;;;;;;;43.90;31.90;;;-5.30;99.90;;;;;;2077829;28;20029;-69
2022/12/16 04:08:05;;;;;;;40.50;30.42;;;-5.30;99.90;;;;;;2075341;28;20057;-69
2022/12/16 04:09:06;;;;;;;44.05;32.33;;;-5.30;99.90;;;;;;2075393;28;20076;-69
2022/12/16 04:10:08;;;;;;;42.53;31.60;;;-5.30;99.90;;;;;;2075037;28;20073;-69
2022/12/16 04:24:52;;;;;;;55.67;30.38;;;-5.40;99.90;;;;;;2076292;28;20029;-69
2022/12/16 04:25:52;;;;;;;42.38;31.65;;;-5.50;99.90;;;;;;2075505;28;20029;-69
2022/12/16 04:28:12;;;;;;;38.53;29.33;;;-5.40;99.90;;;;;;2074507;28;20033;-69
2022/12/16 04:29:12;;;;;;;41.60;30.50;;;-5.50;99.90;;;;;;2076126;28;20033;-69
2022/12/16 04:30:18;;;;;;;44.70;30.25;;;-5.50;99.90;;;;;;2074077;28;20033;-69
2022/12/16 04:31:18;;;;;;;40.50;31.10;;;-5.40;99.90;;;;;;2075293;28;20037;-69
2022/12/16 04:32:19;;;;;;;39.08;28.60;;;-5.40;99.90;;;;;;2074652;28;20108;-69
2022/12/16 04:34:39;;;;;;;39.10;27.92;;;-5.40;99.90;;;;;;2074781;28;20033;-69
